Time;durP1;ratioP1;P1;durP2;ratioP2;P2;SDS_P1;SDS_P2;PMS_P1;PMS_P2;Temp;Humidity;BMP_temperature;BMP_pressure;BME280_temperature;BME280_humidity;BME280_pressure;Samples;Min_cycle;Max_cycle;Signal;HPM_P1;HPM_P2
2022/03/11 00:01:34;;;;;;;6.38;3.55;;;;;;;10.64;27.80;97397.25;4982244;28;20026;-80
2022/03/11 00:04:00;;;;;;;6.25;3.45;;;;;;;10.55;27.66;97390.06;4978085;28;20103;-80
2022/03/11 00:06:25;;;;;;;7.07;3.30;;;;;;;10.58;27.85;97377.34;4984613;28;20035;-81
2022/03/11 00:08:51;;;;;;;5.85;3.22;;;;;;;10.55;27.76;97383.03;5002846;28;20504;-80
2022/03/11 00:11:17;;;;;;;6.75;4.05;;;;;;;10.42;27.99;97383.38;4986679;28;20617;-81
2022/03/11 00:13:42;;;;;;;5.53;3.30;;;;;;;10.36;28.52;97379.13;5000811;28;20043;-80
2022/03/11 00:16:08;;;;;;;6.85;3.72;;;;;;;10.43;28.69;97380.53;5010866;28;20082;-80
2022/03/11 00:18:34;;;;;;;5.70;3.10;;;;;;;10.37;28.21;97375.50;4973467;28;20703;-81
2022/03/11 00:20:59;;;;;;;5.57;3.28;;;;;;;10.22;28.92;97379.41;5011171;28;20103;-81
2022/03/11 00:23:25;;;;;;;7.28;3.17;;;;;;;10.27;28.34;97371.66;5003359;28;20042;-81
2022/03/11 00:25:50;;;;;;;7.07;3.55;;;;;;;10.28;28.12;97373.25;4983996;28;20107;-80
2022/03/11 00:28:16;;;;;;;7.40;3.55;;;;;;;10.19;27.88;97366.84;5003932;28;20173;-80
2022/03/11 00:30:41;;;;;;;5.65;3.28;;;;;;;10.18;28.52;97367.09;4984266;28;20040;-80
2022/03/11 00:33:07;;;;;;;5.18;3.17;;;;;;;9.97;28.89;97363.38;4985860;28;20028;-81
2022/03/11 00:35:34;;;;;;;6.68;3.20;;;;;;;10.12;28.34;97371.44;4973420;28;20812;-80
2022/03/11 00:37:59;;;;;;;5.35;3.08;;;;;;;9.97;28.79;97377.16;4989787;28;20108;-80
2022/03/11 00:40:25;;;;;;;5.63;3.42;;;;;;;10.10;28.88;97365.69;5020198;28;20106;-81
2022/03/11 00:42:50;;;;;;;5.55;3.30;;;;;;;10.07;28.90;97366.16;4981868;28;20020;-82
2022/03/11 00:45:16;;;;;;;6.05;2.90;;;;;;;10.16;28.29;97367.34;4985557;28;20158;-80
2022/03/11 00:47:41;;;;;;;4.78;3.00;;;;;;;9.94;28.61;97368.03;5006246;28;20733;-81
2022/03/11 00:50:07;;;;;;;4.13;2.67;;;;;;;9.82;29.10;97375.13;4982671;28;20024;-81
2022/03/11 00:52:33;;;;;;;3.92;2.30;;;;;;;9.74;28.83;97371.06;4984932;28;20100;-79
2022/03/11 00:54:58;;;;;;;5.20;2.85;;;;;;;9.99;28.93;97364.75;5005056;28;20841;-80
2022/03/11 00:57:23;;;;;;;5.68;3.75;;;;;;;9.87;29.63;97361.38;4973914;28;20111;-79
2022/03/11 00:59:49;;;;;;;4.28;2.65;;;;;;;10.06;28.96;97369.78;4983814;28;20493;-79
2022/03/11 01:02:14;;;;;;;7.82;3.15;;;;;;;9.86;29.10;97365.03;4981821;28;20111;-80
2022/03/11 01:04:40;;;;;;;5.85;3.28;;;;;;;9.92;29.71;97361.47;4986724;28;20031;-80
2022/03/11 01:07:05;;;;;;;6.28;2.97;;;;;;;9.80;29.54;97353.75;5002543;28;20100;-80
2022/03/11 01:09:31;;;;;;;4.95;3.13;;;;;;;9.80;29.77;97351.16;4997311;28;20028;-79
2022/03/11 01:11:56;;;;;;;6.70;3.63;;;;;;;9.79;29.67;97354.00;5005913;28;20048;-79
2022/03/11 01:14:23;;;;;;;5.25;3.03;;;;;;;9.74;29.49;97358.06;4981573;28;20040;-79
2022/03/11 01:16:48;;;;;;;6.38;2.83;;;;;;;9.84;30.10;97354.09;4986632;28;20043;-80
2022/03/11 01:19:14;;;;;;;6.93;3.15;;;;;;;9.83;29.90;97349.88;5002597;28;20032;-79
2022/03/11 01:21:39;;;;;;;6.47;3.10;;;;;;;9.56;30.41;97346.06;4969893;28;20112;-80
2022/03/11 01:24:06;;;;;;;5.63;3.47;;;;;;;9.38;30.59;97343.66;4989488;28;20498;-80
2022/03/11 01:26:31;;;;;;;5.65;2.83;;;;;;;9.30;30.67;97341.44;4990084;28;20802;-80
2022/03/11 01:28:56;;;;;;;7.07;4.03;;;;;;;9.43;31.05;97346.34;4992178;28;20040;-80
2022/03/11 01:31:22;;;;;;;5.00;3.00;;;;;;;9.35;30.40;97339.69;5014399;28;20221;-80
2022/03/11 01:33:47;;;;;;;6.32;3.30;;;;;;;9.51;30.78;97342.56;4974468;28;20089;-80
2022/03/11 01:36:13;;;;;;;6.60;3.85;;;;;;;9.37;31.28;97360.25;4982968;28;20023;-80
2022/03/11 01:38:39;;;;;;;6.90;3.97;;;;;;;9.37;31.20;97342.06;4990678;28;20640;-80
2022/03/11 01:41:05;;;;;;;7.07;3.28;;;;;;;9.27;31.79;97341.88;4967538;28;20108;-80
2022/03/11 01:43:48;;;;;;;7.30;3.90;;;;;;;9.08;31.06;97339.47;5008171;28;20609;-80
2022/03/11 01:46:13;;;;;;;5.88;2.97;;;;;;;9.03;32.06;97334.19;4997604;28;20067;-80
2022/03/11 01:48:39;;;;;;;7.28;3.38;;;;;;;8.80;32.49;97340.97;4985642;28;20056;-79
2022/03/11 01:51:04;;;;;;;6.03;3.30;;;;;;;8.89;32.11;97336.22;4984760;28;20024;-79
2022/03/11 01:53:29;;;;;;;6.13;3.70;;;;;;;9.11;32.01;97333.00;4974320;28;20032;-80
2022/03/11 01:55:55;;;;;;;6.65;3.38;;;;;;;8.88;31.66;97336.47;5004162;28;20122;-81
2022/03/11 01:58:21;;;;;;;7.88;3.45;;;;;;;8.72;32.94;97338.75;4969677;28;20060;-80
2022/03/11 02:00:47;;;;;;;7.35;3.85;;;;;;;8.84;32.69;97343.13;4973625;28;20109;-80
2022/03/11 02:03:12;;;;;;;7.53;3.67;;;;;;;8.90;32.56;97327.41;5007264;28;20721;-80
2022/03/11 02:05:38;;;;;;;6.80;3.25;;;;;;;8.87;33.04;97321.91;4969757;28;20931;-80
2022/03/11 02:08:03;;;;;;;7.65;3.97;;;;;;;8.83;32.77;97326.75;4994932;28;20037;-80
2022/03/11 02:10:30;;;;;;;7.40;3.50;;;;;;;8.71;33.30;97331.19;4982735;28;20062;-80
2022/03/11 02:12:57;;;;;;;5.85;3.60;;;;;;;8.70;32.99;97321.81;4977194;28;20032;-80
2022/03/11 02:15:23;;;;;;;6.82;3.45;;;;;;;8.49;33.27;97323.19;4999688;28;20085;-79
2022/03/11 02:17:48;;;;;;;7.97;4.05;;;;;;;8.85;33.14;97331.72;4991041;28;20059;-80
2022/03/11 02:20:14;;;;;;;6.40;3.83;;;;;;;8.70;33.71;97325.19;5002177;28;20021;-81
2022/03/11 02:22:40;;;;;;;5.95;3.60;;;;;;;8.77;33.58;97327.66;4992817;28;20206;-80
2022/03/11 02:25:07;;;;;;;5.53;3.40;;;;;;;8.80;33.76;97315.00;4976058;28;20596;-80
2022/03/11 02:27:37;;;;;;;7.38;3.75;;;;;;;8.72;33.16;97319.78;4990055;28;20662;-80
2022/03/11 02:30:16;;;;;;;7.15;3.70;;;;;;;8.66;34.12;97329.28;4991411;28;20410;-80
2022/03/11 02:32:41;;;;;;;6.85;4.65;;;;;;;8.78;34.15;97321.47;4992869;28;20272;-79
2022/03/11 02:35:08;;;;;;;6.88;3.80;;;;;;;8.67;33.84;97323.06;4959473;28;20305;-81
2022/03/11 02:37:33;;;;;;;7.15;4.03;;;;;;;8.57;33.94;97307.28;4953183;28;20625;-80
2022/03/11 02:39:59;;;;;;;6.32;3.83;;;;;;;8.51;34.11;97311.56;4973395;28;20198;-80
2022/03/11 02:42:24;;;;;;;8.75;4.38;;;;;;;8.51;34.33;97308.19;4975248;28;20757;-80
2022/03/11 02:44:49;;;;;;;8.20;3.90;;;;;;;8.39;34.68;97308.94;4953409;28;20157;-80
2022/03/11 02:47:15;;;;;;;7.03;4.07;;;;;;;8.27;34.85;97307.38;4981227;28;20032;-80
2022/03/11 02:49:40;;;;;;;6.57;3.97;;;;;;;7.98;35.32;97305.44;4974706;28;20207;-79
2022/03/11 02:52:06;;;;;;;7.25;4.10;;;;;;;8.20;35.21;97302.31;4994420;28;20279;-80
2022/03/11 02:54:31;;;;;;;10.35;4.57;;;;;;;8.28;35.00;97303.75;4977754;28;20268;-80
2022/03/11 02:56:57;;;;;;;7.85;4.35;;;;;;;8.16;36.10;97298.59;4994494;28;20198;-80
2022/03/11 02:59:22;;;;;;;10.80;4.85;;;;;;;8.11;36.24;97298.47;4988303;28;20171;-80
2022/03/11 03:01:47;;;;;;;8.85;4.85;;;;;;;8.09;35.98;97296.09;4979407;28;20254;-80
2022/03/11 03:04:13;;;;;;;8.98;4.75;;;;;;;7.79;36.56;97296.97;4959004;28;20214;-79
2022/03/11 03:06:39;;;;;;;8.15;4.60;;;;;;;7.81;36.81;97296.75;4958422;28;20208;-79
2022/03/11 03:09:04;;;;;;;7.60;4.40;;;;;;;8.03;36.76;97297.78;4962541;28;20178;-80
2022/03/11 03:11:30;;;;;;;8.23;4.72;;;;;;;8.00;36.39;97295.66;4994246;28;20205;-79
2022/03/11 03:13:55;;;;;;;8.05;4.22;;;;;;;8.05;36.41;97293.16;4981039;28;20271;-80
2022/03/11 03:16:20;;;;;;;10.13;4.88;;;;;;;8.09;36.58;97288.31;4971390;28;20265;-79
2022/03/11 03:18:46;;;;;;;7.30;4.75;;;;;;;8.05;37.09;97289.78;4956442;28;20191;-80
2022/03/11 03:21:11;;;;;;;8.38;4.90;;;;;;;7.97;36.73;97287.50;4964765;28;20248;-80
2022/03/11 03:23:37;;;;;;;11.05;5.70;;;;;;;7.65;37.01;97291.19;4962379;28;20194;-79
2022/03/11 03:26:02;;;;;;;8.82;4.95;;;;;;;7.80;37.55;97300.34;4964886;28;20275;-80
2022/03/11 03:28:28;;;;;;;8.25;5.18;;;;;;;7.89;37.38;97301.59;4971674;28;20283;-80
2022/03/11 03:30:53;;;;;;;10.23;4.72;;;;;;;7.83;37.39;97298.09;4987377;28;20287;-80
2022/03/11 03:33:18;;;;;;;8.32;4.70;;;;;;;7.70;37.49;97298.31;5006053;28;20194;-80
2022/03/11 03:35:44;;;;;;;9.43;5.35;;;;;;;7.56;38.36;97289.16;4990567;28;20206;-80
2022/03/11 03:38:09;;;;;;;9.25;4.93;;;;;;;7.62;38.04;97291.63;4970144;28;20695;-80
2022/03/11 03:40:35;;;;;;;10.48;5.80;;;;;;;7.50;38.54;97293.41;4962815;28;20074;-79
2022/03/11 03:43:00;;;;;;;10.40;5.15;;;;;;;7.54;38.63;97289.38;4978657;28;20269;-80
2022/03/11 03:45:26;;;;;;;9.45;5.00;;;;;;;7.48;38.65;97290.25;4970781;28;20223;-80
2022/03/11 03:47:51;;;;;;;9.75;4.60;;;;;;;7.65;38.79;97291.19;4980951;28;20828;-79
2022/03/11 03:50:17;;;;;;;11.43;5.38;;;;;;;7.61;38.38;97297.06;4980864;28;20130;-79
2022/03/11 03:52:42;;;;;;;10.48;5.90;;;;;;;7.64;38.51;97301.78;4989982;28;20194;-80
2022/03/11 03:55:08;;;;;;;8.35;5.15;;;;;;;7.53;38.49;97287.00;4965809;28;20477;-80
2022/03/11 03:57:34;;;;;;;8.63;5.28;;;;;;;7.54;38.88;97293.75;4996278;28;20660;-80
2022/03/11 03:59:59;;;;;;;11.32;6.35;;;;;;;7.45;39.46;97291.50;5004132;28;20028;-80
2022/03/11 04:02:25;;;;;;;11.35;6.03;;;;;;;7.51;38.92;97295.00;4964053;28;20222;-80
2022/03/11 04:04:50;;;;;;;11.43;5.82;;;;;;;7.39;39.45;97291.59;4992651;28;20202;-79
2022/03/11 04:07:15;;;;;;;10.45;5.95;;;;;;;7.22;39.82;97291.41;4961745;28;20181;-80
2022/03/11 04:09:41;;;;;;;11.32;6.32;;;;;;;7.27;40.09;97287.13;4957270;28;20210;-80
2022/03/11 04:12:09;;;;;;;11.27;5.70;;;;;;;7.51;39.81;97297.59;4954093;28;20295;-80
2022/03/11 04:14:34;;;;;;;10.80;6.20;;;;;;;7.43;39.59;97290.91;4996728;28;20312;-80
2022/03/11 04:16:59;;;;;;;12.55;6.65;;;;;;;7.40;39.93;97298.31;4980146;28;20274;-79
2022/03/11 04:19:25;;;;;;;11.25;6.63;;;;;;;7.46;39.46;97300.81;4980220;28;20181;-80
2022/03/11 04:21:50;;;;;;;12.55;6.63;;;;;;;7.37;39.97;97296.16;4997248;28;20287;-80
2022/03/11 04:24:15;;;;;;;13.18;6.10;;;;;;;7.25;40.40;97291.75;4980662;28;20275;-80
2022/03/11 04:26:43;;;;;;;11.68;6.00;;;;;;;7.30;39.91;97302.25;4980621;28;20269;-80
2022/03/11 04:29:09;;;;;;;12.05;6.30;;;;;;;7.33;40.09;97295.81;4959480;28;20246;-80
2022/03/11 04:31:34;;;;;;;10.95;6.30;;;;;;;7.32;40.12;97299.44;4955393;28;20280;-80
2022/03/11 04:34:01;;;;;;;11.77;6.53;;;;;;;7.26;40.78;97298.50;4959788;28;20187;-80
2022/03/11 04:36:28;;;;;;;12.07;6.30;;;;;;;7.21;40.35;97300.94;4978284;28;20702;-80
2022/03/11 04:38:53;;;;;;;9.95;5.85;;;;;;;7.18;40.65;97300.59;5001242;28;20172;-80
2022/03/11 04:41:19;;;;;;;11.95;6.45;;;;;;;7.11;40.65;97300.69;4982784;28;20222;-80
2022/03/11 04:43:45;;;;;;;12.93;7.45;;;;;;;6.98;40.81;97298.28;5003245;28;20266;-80
2022/03/11 04:46:10;;;;;;;13.40;7.45;;;;;;;7.03;41.19;97301.00;4977951;28;20268;-80
2022/03/11 04:48:36;;;;;;;12.75;7.05;;;;;;;6.86;41.28;97296.41;4979900;28;20155;-80
2022/03/11 04:51:04;;;;;;;12.52;7.13;;;;;;;6.80;41.72;97302.44;4974388;28;20284;-80
2022/03/11 04:53:30;;;;;;;14.27;7.43;;;;;;;6.85;41.44;97300.00;4964673;28;20290;-80
2022/03/11 04:55:55;;;;;;;12.27;6.43;;;;;;;6.85;41.52;97296.63;4975265;28;20164;-80
2022/03/11 04:58:20;;;;;;;13.77;7.35;;;;;;;6.79;42.15;97302.69;4991953;28;20214;-80
2022/03/11 05:00:46;;;;;;;12.93;6.90;;;;;;;6.64;42.32;97296.06;4958910;28;20295;-80
2022/03/11 05:03:12;;;;;;;13.35;7.63;;;;;;;6.66;42.11;97294.03;4991892;28;20214;-80
2022/03/11 05:05:37;;;;;;;12.77;7.65;;;;;;;6.54;42.00;97288.78;4975120;28;20202;-79
2022/03/11 05:08:02;;;;;;;15.27;8.20;;;;;;;6.50;42.95;97287.66;4970364;28;20338;-80
2022/03/11 05:10:28;;;;;;;13.50;8.00;;;;;;;6.54;42.59;97285.41;4982632;28;20161;-80
2022/03/11 05:12:53;;;;;;;15.45;8.52;;;;;;;6.52;42.99;97293.41;4989097;28;20361;-80
2022/03/11 05:15:21;;;;;;;14.05;8.80;;;;;;;6.60;42.64;97289.75;4959867;28;20460;-80
2022/03/11 05:17:46;;;;;;;14.75;8.80;;;;;;;6.53;42.84;97284.63;4978247;28;20643;-80
2022/03/11 05:20:12;;;;;;;15.75;9.05;;;;;;;6.35;42.97;97292.38;4978263;28;20198;-80
2022/03/11 05:22:37;;;;;;;15.18;8.70;;;;;;;6.43;43.01;97288.75;4991996;28;20290;-80
2022/03/11 05:25:03;;;;;;;17.55;9.43;;;;;;;6.37;43.25;97287.78;4956139;28;20226;-80
2022/03/11 05:27:29;;;;;;;13.20;7.82;;;;;;;6.38;42.92;97291.97;4975945;28;20346;-80
2022/03/11 05:29:54;;;;;;;15.32;8.73;;;;;;;6.21;43.37;97285.75;4968273;28;20656;-80
2022/03/11 05:32:20;;;;;;;16.85;9.40;;;;;;;6.19;43.41;97286.75;4960855;28;20285;-80
2022/03/11 05:34:46;;;;;;;17.20;8.80;;;;;;;6.13;43.86;97295.34;4994634;28;20271;-80
2022/03/11 05:37:12;;;;;;;15.15;8.68;;;;;;;6.19;43.76;97299.69;4975879;28;20657;-80
2022/03/11 05:39:37;;;;;;;16.13;8.85;;;;;;;6.29;43.39;97299.19;4978945;28;20327;-80
2022/03/11 05:42:03;;;;;;;18.85;8.90;;;;;;;6.31;43.63;97299.78;4970235;28;20280;-80
2022/03/11 05:44:29;;;;;;;16.65;9.30;;;;;;;6.29;43.20;97300.97;4955891;28;20210;-80
2022/03/11 05:46:55;;;;;;;15.93;9.23;;;;;;;6.19;43.57;97297.09;4968375;28;20287;-80
2022/03/11 05:49:21;;;;;;;15.45;9.02;;;;;;;6.15;44.10;97293.38;4968957;28;20210;-80
2022/03/11 05:51:46;;;;;;;15.73;9.07;;;;;;;6.07;43.94;97298.03;4960826;28;20187;-80
2022/03/11 05:54:11;;;;;;;14.50;8.20;;;;;;;6.16;44.00;97304.50;4959157;28;20299;-79
2022/03/11 05:56:37;;;;;;;17.05;9.07;;;;;;;6.14;43.99;97307.28;4958254;28;20545;-80
2022/03/11 05:59:04;;;;;;;18.45;9.57;;;;;;;6.09;44.38;97303.75;4955891;28;20501;-80
2022/03/11 06:01:33;;;;;;;19.48;9.82;;;;;;;5.99;44.08;97301.66;4967694;28;20201;-80
2022/03/11 06:04:00;;;;;;;16.00;8.43;;;;;;;5.97;44.38;97301.06;4970461;28;20214;-80
2022/03/11 06:06:27;;;;;;;17.92;9.75;;;;;;;6.03;44.43;97299.44;4978233;28;20187;-80
2022/03/11 06:08:52;;;;;;;16.65;9.35;;;;;;;5.97;44.15;97290.72;4990181;28;20190;-80
2022/03/11 06:11:17;;;;;;;18.13;10.02;;;;;;;5.95;44.35;97311.59;4970485;28;20213;-80
2022/03/11 06:13:43;;;;;;;17.38;9.07;;;;;;;5.99;44.47;97299.06;4953691;28;20136;-81
2022/03/11 06:16:08;;;;;;;17.48;9.60;;;;;;;6.03;44.48;97295.03;5004516;28;20300;-80
2022/03/11 06:18:33;;;;;;;18.15;9.23;;;;;;;6.06;43.78;97297.22;4965687;28;20179;-80
2022/03/11 06:20:59;;;;;;;17.98;9.32;;;;;;;6.17;43.96;97286.19;5003392;28;20309;-80
2022/03/11 06:23:24;;;;;;;15.70;9.30;;;;;;;6.21;44.27;97294.31;4965829;28;20457;-80
2022/03/11 06:25:50;;;;;;;17.27;9.40;;;;;;;6.22;43.48;97292.50;4986161;28;20189;-80
2022/03/11 06:28:16;;;;;;;19.77;10.80;;;;;;;6.30;43.36;97290.44;4978167;28;20260;-80
2022/03/11 06:30:42;;;;;;;19.45;9.60;;;;;;;6.33;43.54;97304.75;4990200;28;20209;-80
2022/03/11 06:33:09;;;;;;;16.55;9.57;;;;;;;6.29;44.04;97303.56;4964218;28;20370;-80
2022/03/11 06:35:34;;;;;;;18.40;9.73;;;;;;;6.42;43.20;97307.84;4964024;28;20157;-80
2022/03/11 06:38:00;;;;;;;17.13;9.68;;;;;;;6.43;43.33;97297.28;4983808;28;20288;-80
2022/03/11 06:40:25;;;;;;;19.15;10.35;;;;;;;6.40;43.46;97300.28;4980087;28;20159;-80
2022/03/11 06:42:51;;;;;;;18.60;10.25;;;;;;;6.46;43.25;97308.97;4954356;28;20207;-80
2022/03/11 06:45:18;;;;;;;17.48;9.65;;;;;;;6.44;42.60;97304.00;4969272;28;20237;-79
2022/03/11 06:47:45;;;;;;;19.38;11.02;;;;;;;6.57;42.96;97301.31;4976803;28;20648;-80
2022/03/11 06:50:10;;;;;;;19.35;9.73;;;;;;;6.66;43.27;97288.09;4976803;28;20209;-80
2022/03/11 06:52:36;;;;;;;17.00;9.13;;;;;;;6.81;42.44;97295.50;4975150;28;20160;-81
2022/03/11 06:55:02;;;;;;;18.40;9.43;;;;;;;6.85;42.55;97291.44;4972666;28;20155;-80
2022/03/11 06:57:28;;;;;;;18.70;10.15;;;;;;;7.00;42.82;97298.84;4975513;28;20209;-80
2022/03/11 06:59:53;;;;;;;17.75;10.15;;;;;;;7.09;42.03;97292.34;4959824;28;20202;-80
2022/03/11 07:02:19;;;;;;;16.70;9.13;;;;;;;7.14;41.50;97302.84;4950413;28;20281;-80
2022/03/11 07:04:44;;;;;;;18.35;9.52;;;;;;;7.25;40.91;97304.69;4972769;28;20238;-80
2022/03/11 07:07:10;;;;;;;19.17;10.15;;;;;;;7.23;40.73;97304.13;4971188;28;20215;-80
2022/03/11 07:09:36;;;;;;;18.85;9.73;;;;;;;7.49;40.58;97307.38;4989797;28;20274;-80
2022/03/11 07:12:03;;;;;;;18.13;9.85;;;;;;;7.55;40.26;97316.84;4963710;28;20220;-81
2022/03/11 07:14:36;;;;;;;16.80;9.18;;;;;;;7.80;39.95;97315.91;4947272;28;20203;-80
2022/03/11 07:17:06;;;;;;;20.58;9.80;;;;;;;7.79;39.49;97306.53;4956933;28;20181;-80
2022/03/11 07:19:32;;;;;;;15.75;8.90;;;;;;;8.04;39.38;97312.31;4970656;28;20703;-80
2022/03/11 07:22:00;;;;;;;19.35;9.30;;;;;;;8.01;38.69;97317.97;4956927;28;20315;-81
2022/03/11 07:24:25;;;;;;;17.08;9.27;;;;;;;8.01;39.41;97305.00;4950422;28;20168;-80
2022/03/11 07:26:51;;;;;;;17.73;8.95;;;;;;;8.24;39.02;97314.59;4954775;28;20282;-80
2022/03/11 07:29:16;;;;;;;18.10;9.48;;;;;;;8.26;38.56;97306.59;5001361;28;20092;-80
2022/03/11 07:31:42;;;;;;;17.23;9.25;;;;;;;8.20;38.53;97308.28;4967105;28;20225;-81
2022/03/11 07:34:07;;;;;;;16.48;8.68;;;;;;;8.47;38.11;97310.44;4954647;28;20726;-80
2022/03/11 07:36:34;;;;;;;16.25;8.32;;;;;;;8.61;37.69;97306.59;4960639;28;20211;-81
2022/03/11 07:39:03;;;;;;;16.48;9.25;;;;;;;8.69;37.27;97299.47;4960838;28;20794;-81
2022/03/11 07:41:30;;;;;;;15.90;8.52;;;;;;;8.98;37.16;97302.91;4986446;28;20171;-80
2022/03/11 07:43:56;;;;;;;16.25;9.43;;;;;;;8.85;37.24;97303.16;4977788;28;20201;-80
2022/03/11 07:46:23;;;;;;;14.48;8.43;;;;;;;8.96;36.85;97310.94;4986655;28;20375;-80
2022/03/11 07:48:51;;;;;;;18.00;9.55;;;;;;;9.03;36.72;97305.59;4990899;28;20226;-80
2022/03/11 07:51:18;;;;;;;16.27;8.82;;;;;;;9.38;35.93;97302.88;4961465;28;20345;-80
2022/03/11 07:53:44;;;;;;;16.42;9.15;;;;;;;9.36;36.57;97299.72;4972834;28;21823;-80
2022/03/11 07:56:13;;;;;;;15.98;8.82;;;;;;;9.27;36.06;97301.13;4954211;28;20190;-80
2022/03/11 07:58:39;;;;;;;15.10;8.50;;;;;;;9.26;36.16;97303.94;4954911;28;20214;-80
2022/03/11 08:01:07;;;;;;;15.77;9.45;;;;;;;9.70;35.08;97299.78;4963129;28;20362;-81
2022/03/11 08:03:33;;;;;;;16.38;7.88;;;;;;;9.84;35.41;97297.66;4963364;28;20199;-80
2022/03/11 08:06:00;;;;;;;15.32;8.68;;;;;;;9.87;35.76;97297.19;4971372;28;20835;-81
2022/03/11 08:08:26;;;;;;;16.27;9.15;;;;;;;10.08;35.26;97293.06;4976939;28;20283;-80
2022/03/11 08:10:54;;;;;;;14.70;7.90;;;;;;;10.10;34.88;97285.81;4990572;28;20191;-80
2022/03/11 08:13:22;;;;;;;13.75;8.23;;;;;;;10.39;34.71;97293.53;4953874;28;20167;-81
2022/03/11 08:15:47;;;;;;;15.23;8.65;;;;;;;10.19;34.25;97288.00;4957978;28;20177;-79
2022/03/11 08:18:13;;;;;;;15.98;8.35;;;;;;;10.17;34.85;97301.25;4974078;28;20651;-80
2022/03/11 08:20:38;;;;;;;15.90;8.98;;;;;;;10.34;34.11;97287.47;4986231;28;20176;-81
2022/03/11 08:23:04;;;;;;;14.52;8.15;;;;;;;10.60;33.98;97297.19;4970096;28;20203;-80
2022/03/11 08:25:30;;;;;;;13.40;8.30;;;;;;;10.89;33.55;97294.41;4987189;28;20277;-81
2022/03/11 08:27:56;;;;;;;14.80;8.18;;;;;;;10.98;33.29;97299.97;4953628;28;20142;-80
2022/03/11 08:30:23;;;;;;;13.93;8.63;;;;;;;11.05;33.98;97293.56;4965837;28;20186;-80
2022/03/11 08:32:49;;;;;;;15.32;8.45;;;;;;;10.74;33.49;97286.41;4971702;28;20287;-79
2022/03/11 08:35:14;;;;;;;14.02;8.70;;;;;;;10.78;34.02;97282.28;4992228;28;20628;-80
2022/03/11 08:37:41;;;;;;;19.08;10.13;;;;;;;11.09;33.41;97280.03;4956159;28;20184;-79
2022/03/11 08:40:08;;;;;;;15.10;8.55;;;;;;;10.95;32.88;97283.03;4967083;28;20266;-79
2022/03/11 08:42:34;;;;;;;15.95;8.85;;;;;;;11.20;33.23;97274.69;4962054;28;20241;-80
2022/03/11 08:45:00;;;;;;;15.98;9.20;;;;;;;11.37;32.64;97269.38;4961909;28;20656;-81
2022/03/11 08:47:26;;;;;;;12.75;7.70;;;;;;;11.47;32.92;97275.72;4965704;28;20267;-80
2022/03/11 08:49:52;;;;;;;14.20;8.43;;;;;;;11.75;32.33;97275.44;4958614;28;20302;-80
2022/03/11 08:52:17;;;;;;;13.40;7.97;;;;;;;11.46;32.17;97267.09;4966525;28;20757;-80
2022/03/11 08:54:43;;;;;;;13.25;8.07;;;;;;;11.70;32.04;97277.22;4986283;28;20199;-79
2022/03/11 08:57:08;;;;;;;13.98;8.40;;;;;;;11.58;32.01;97282.59;4954655;28;20291;-80
2022/03/11 08:59:33;;;;;;;15.25;8.65;;;;;;;11.59;31.58;97287.56;4973868;28;20647;-80
2022/03/11 09:01:59;;;;;;;15.13;9.30;;;;;;;11.66;31.53;97289.97;4958204;28;20214;-81
2022/03/11 09:04:24;;;;;;;14.70;8.38;;;;;;;11.61;31.77;97295.13;4991154;28;20236;-81
2022/03/11 09:06:49;;;;;;;13.32;8.27;;;;;;;11.43;32.03;97289.25;4982725;28;20908;-80
2022/03/11 09:09:18;;;;;;;12.77;8.55;;;;;;;11.63;31.69;97295.69;4974611;28;20194;-80
2022/03/11 09:11:43;;;;;;;13.65;8.25;;;;;;;11.89;31.55;97296.69;4990858;28;20279;-80
2022/03/11 09:14:11;;;;;;;13.93;8.30;;;;;;;11.97;31.39;97292.84;4954373;28;20199;-81
2022/03/11 09:16:37;;;;;;;14.65;8.60;;;;;;;12.08;31.43;97294.50;4982884;28;20186;-81
2022/03/11 09:19:02;;;;;;;13.15;8.23;;;;;;;12.23;30.64;97290.41;4952571;28;20453;-80
2022/03/11 09:21:28;;;;;;;13.77;7.88;;;;;;;12.35;31.04;97285.78;4973888;28;20717;-81
2022/03/11 09:23:54;;;;;;;14.73;8.48;;;;;;;12.63;31.41;97287.25;4946715;28;20604;-81
2022/03/11 09:26:19;;;;;;;14.93;8.35;;;;;;;12.95;29.78;97290.75;4952571;28;20164;-81
2022/03/11 09:28:45;;;;;;;12.43;7.75;;;;;;;13.19;29.79;97286.63;4967514;28;20284;-80
2022/03/11 09:31:10;;;;;;;12.52;8.25;;;;;;;13.52;28.64;97279.41;4976306;28;20199;-81
2022/03/11 09:33:37;;;;;;;11.75;7.50;;;;;;;13.78;29.83;97289.91;4960326;28;20211;-81
2022/03/11 09:36:03;;;;;;;11.18;7.07;;;;;;;13.79;29.40;97273.13;4977252;28;20226;-81
2022/03/11 09:38:28;;;;;;;13.52;7.60;;;;;;;13.91;29.28;97281.50;4969551;28;20329;-81
2022/03/11 09:40:56;;;;;;;13.20;8.15;;;;;;;13.60;28.54;97281.50;4967498;28;20776;-81
2022/03/11 09:43:21;;;;;;;11.25;7.35;;;;;;;13.74;28.64;97281.75;4984272;28;20213;-81
2022/03/11 09:45:46;;;;;;;14.48;8.23;;;;;;;13.62;28.94;97283.84;4989263;28;20300;-81
2022/03/11 09:48:15;;;;;;;13.35;7.70;;;;;;;13.64;28.89;97287.78;4964283;28;20202;-81
2022/03/11 09:50:41;;;;;;;11.27;7.72;;;;;;;13.88;28.77;97291.72;4966949;28;20369;-81
2022/03/11 09:53:06;;;;;;;12.18;7.18;;;;;;;13.85;28.37;97285.19;4974136;28;20360;-81
2022/03/11 09:55:31;;;;;;;12.77;8.40;;;;;;;12.99;29.27;97276.94;4988657;28;20338;-80
2022/03/11 09:57:57;;;;;;;12.80;8.13;;;;;;;13.04;29.48;97266.50;4969382;28;20184;-80
2022/03/11 10:00:22;;;;;;;12.02;8.10;;;;;;;13.23;29.24;97265.97;4972681;28;20177;-80
2022/03/11 10:02:48;;;;;;;12.15;7.68;;;;;;;13.67;29.51;97261.13;4977444;28;20387;-81
2022/03/11 10:05:14;;;;;;;10.93;7.18;;;;;;;14.18;28.17;97270.75;4972456;28;20195;-80
2022/03/11 10:07:40;;;;;;;12.35;7.38;;;;;;;14.16;28.13;97277.31;4959371;28;20202;-81
2022/03/11 10:10:17;;;;;;;10.85;7.25;;;;;;;13.79;28.50;97278.38;4977848;28;20196;-81
2022/03/11 10:12:46;;;;;;;11.15;7.28;;;;;;;13.83;28.88;97274.19;4966362;28;20160;-81
2022/03/11 10:15:14;;;;;;;13.80;9.25;;;;;;;14.30;28.72;97278.31;4971025;28;20187;-81
2022/03/11 10:17:41;;;;;;;13.00;8.02;;;;;;;14.25;28.01;97275.69;4959901;28;20701;-80
2022/03/11 10:20:09;;;;;;;12.60;7.80;;;;;;;14.58;27.94;97278.75;4969100;28;20641;-81
2022/03/11 10:22:36;;;;;;;11.50;7.70;;;;;;;14.85;27.41;97269.78;4967916;28;20203;-81
2022/03/11 10:25:17;;;;;;;12.18;7.95;;;;;;;14.43;27.35;97266.50;4951334;28;20404;-81
2022/03/11 10:28:10;;;;;;;11.60;7.47;;;;;;;14.91;27.59;97271.34;4979784;28;20194;-81
2022/03/11 10:30:38;;;;;;;13.00;7.75;;;;;;;15.15;26.64;97259.13;4955736;28;20210;-81
2022/03/11 10:33:06;;;;;;;13.43;7.50;;;;;;;15.14;27.34;97265.44;4981560;28;20235;-80
2022/03/11 10:35:38;;;;;;;12.43;8.07;;;;;;;15.05;26.85;97258.41;4974714;28;20682;-79
2022/03/11 10:38:09;;;;;;;10.73;6.95;;;;;;;15.28;26.74;97255.09;4953840;28;20164;-81
2022/03/11 10:40:56;;;;;;;14.15;8.13;;;;;;;15.03;26.89;97263.13;4971757;28;20173;-80
2022/03/11 10:43:21;;;;;;;12.00;7.68;;;;;;;15.43;27.28;97259.47;4984052;28;20286;-80
2022/03/11 10:45:52;;;;;;;9.23;6.70;;;;;;;15.38;27.32;97256.13;4998321;28;20220;-80
2022/03/11 10:48:19;;;;;;;10.98;7.03;;;;;;;15.88;26.81;97256.78;4986623;28;20658;-81
2022/03/11 10:50:44;;;;;;;11.93;8.02;;;;;;;16.09;25.90;97250.31;4955367;28;20282;-80
2022/03/11 10:53:11;;;;;;;11.88;7.53;;;;;;;16.11;26.04;97250.03;4975534;28;20278;-80
2022/03/11 10:55:39;;;;;;;12.00;7.97;;;;;;;15.98;25.79;97248.81;4974222;28;20618;-80
2022/03/11 10:58:06;;;;;;;11.07;7.63;;;;;;;15.81;25.70;97251.09;4971920;28;20179;-80
2022/03/11 11:00:37;;;;;;;11.70;7.18;;;;;;;15.74;26.01;97238.25;4971496;28;20327;-80
2022/03/11 11:03:08;;;;;;;12.60;7.40;;;;;;;15.48;26.03;97250.78;4963489;28;20302;-80
2022/03/11 11:05:34;;;;;;;10.10;6.65;;;;;;;15.96;25.65;97248.31;4969755;28;20659;-79
2022/03/11 11:08:01;;;;;;;11.40;7.03;;;;;;;16.18;25.85;97237.34;4967134;28;20173;-81
2022/03/11 11:10:29;;;;;;;9.38;6.78;;;;;;;16.48;25.75;97241.47;4961790;28;20716;-81
2022/03/11 11:12:55;;;;;;;9.02;6.65;;;;;;;17.32;24.68;97232.22;4996861;28;20207;-81
2022/03/11 11:15:21;;;;;;;11.57;6.82;;;;;;;17.69;24.62;97235.88;4976745;28;20460;-82
2022/03/11 11:17:51;;;;;;;11.60;6.80;;;;;;;18.27;24.49;97241.78;4959096;28;20546;-81
2022/03/11 11:20:17;;;;;;;9.82;6.95;;;;;;;18.80;22.45;97227.25;4962847;28;20167;-81
2022/03/11 11:22:44;;;;;;;9.63;7.05;;;;;;;19.08;21.52;97223.50;4975496;28;20186;-81
2022/03/11 11:25:11;;;;;;;10.48;7.22;;;;;;;19.72;20.94;97219.91;4996899;28;20664;-81
2022/03/11 11:27:36;;;;;;;11.57;7.60;;;;;;;19.19;21.72;97212.72;4955180;28;20258;-81
2022/03/11 11:30:02;;;;;;;11.15;7.57;;;;;;;18.96;21.75;97210.06;4958176;28;20270;-81